PWSweather.com
Personal Weather Stations
Station Observations
KNHRINDG3
Converse Meadow Pond, Rindge, NH 03461

Converse Meadow PondRindge, NH 03461

Lat: 42.74, Lon: -71.98

Elevation: 1060

Station Type: Davis Vantage Pro 2

http://nhwoodworker.com/weather/index.php

High Low Average
Temperature 48.2°F9.0°F 44.8°F7.1°F 46.7°F8.2°F
Dew Point 47.9°F8.8°F 44.5°F6.9°F 46.3°F7.9°F
Winds 3.0 mph SE4.8 mph SE Calm Calm 1.0 mph 1.6 mph
Wind Gusts 14.0 mph22.5 mph -- 3.1 mph5.0 mph
Humidity 99% 98% 99%
Pressure 30.04 in1017.30 in 29.85 in1010.80 in -
Precipitation 0.66 in16.80 in - -
Hour Temp Dew Point Humidity Winds Wind Gusts Pressure Precip Precip Rate Daily Precip Total
12:00 AM 48.2°F9.0°C 47.7°F8.7°C 98% 1.0 mph SSE1.6 kmh SSE 2.0 mph3.2 kmh 29.99 in1015.6 mb 0.00 in0.0 mm 0.00 in/hr0.0 mm/hr 0.00 in0.0 mm
12:10 AM 48.1°F8.9°C 47.5°F8.6°C 98% Calm Calm 2.0 mph3.2 kmh 29.99 in1015.6 mb 0.00 in0.0 mm 0.00 in/hr0.0 mm/hr 0.00 in0.0 mm
12:20 AM 47.9°F8.8°C 47.4°F8.6°C 98% Calm Calm -- 29.99 in1015.6 mb 0.00 in0.0 mm 0.00 in/hr0.0 mm/hr 0.00 in0.0 mm
12:30 AM 47.9°F8.8°C 47.4°F8.6°C 98% Calm Calm 1.0 mph1.6 kmh 29.99 in1015.6 mb 0.00 in0.0 mm 0.00 in/hr0.0 mm/hr 0.00 in0.0 mm
12:40 AM 47.8°F8.8°C 47.3°F8.5°C 98% Calm Calm 3.0 mph4.8 kmh 29.98 in1015.2 mb 0.00 in0.0 mm 0.00 in/hr0.0 mm/hr 0.00 in0.0 mm
12:50 AM 47.7°F8.7°C 47.2°F8.4°C 98% Calm Calm 1.0 mph1.6 kmh 29.98 in1015.2 mb 0.00 in0.0 mm 0.00 in/hr0.0 mm/hr 0.00 in0.0 mm
01:00 AM 47.6°F8.7°C 47.0°F8.3°C 98% Calm Calm 2.0 mph3.2 kmh 29.98 in1015.2 mb 0.00 in0.0 mm 0.00 in/hr0.0 mm/hr 0.00 in0.0 mm
01:10 AM 47.4°F8.6°C 46.9°F8.3°C 98% 1.0 mph NW1.6 kmh NW 1.0 mph1.6 kmh 29.99 in1015.6 mb 0.00 in0.0 mm 0.00 in/hr0.0 mm/hr 0.00 in0.0 mm
01:20 AM 47.4°F8.6°C 46.9°F8.3°C 98% 1.0 mph SE1.6 kmh SE 2.0 mph3.2 kmh 29.98 in1015.2 mb 0.00 in0.0 mm 0.00 in/hr0.0 mm/hr 0.00 in0.0 mm
01:30 AM 47.4°F8.6°C 46.8°F8.2°C 98% 1.0 mph SW1.6 kmh SW 2.0 mph3.2 kmh 29.99 in1015.6 mb 0.00 in0.0 mm 0.00 in/hr0.0 mm/hr 0.00 in0.0 mm
01:40 AM 47.3°F8.5°C 46.8°F8.2°C 98% Calm Calm 1.0 mph1.6 kmh 29.98 in1015.2 mb 0.00 in0.0 mm 0.00 in/hr0.0 mm/hr 0.00 in0.0 mm
01:50 AM 47.3°F8.5°C 46.8°F8.2°C 98% Calm Calm 1.0 mph1.6 kmh 29.98 in1015.2 mb 0.00 in0.0 mm 0.00 in/hr0.0 mm/hr 0.00 in0.0 mm
02:00 AM 47.3°F8.5°C 46.8°F8.2°C 98% Calm Calm 2.0 mph3.2 kmh 29.98 in1015.2 mb 0.00 in0.0 mm 0.00 in/hr0.0 mm/hr 0.00 in0.0 mm
02:10 AM 47.2°F8.4°C 46.7°F8.2°C 98% Calm Calm 2.0 mph3.2 kmh 29.98 in1015.2 mb 0.00 in0.0 mm 0.00 in/hr0.0 mm/hr 0.00 in0.0 mm
02:20 AM 47.2°F8.4°C 46.7°F8.2°C 98% 1.0 mph ENE1.6 kmh ENE 2.0 mph3.2 kmh 29.98 in1015.2 mb 0.00 in0.0 mm 0.00 in/hr0.0 mm/hr 0.00 in0.0 mm
02:30 AM 47.2°F8.4°C 46.7°F8.2°C 98% 1.0 mph SE1.6 kmh SE 2.0 mph3.2 kmh 29.97 in1014.9 mb 0.00 in0.0 mm 0.00 in/hr0.0 mm/hr 0.00 in0.0 mm
02:40 AM 47.1°F8.4°C 46.6°F8.1°C 98% Calm Calm 3.0 mph4.8 kmh 29.98 in1015.2 mb 0.00 in0.0 mm 0.00 in/hr0.0 mm/hr 0.00 in0.0 mm
02:50 AM 47.0°F8.3°C 46.5°F8.1°C 98% 1.0 mph SE1.6 kmh SE 2.0 mph3.2 kmh 29.97 in1014.9 mb 0.00 in0.0 mm 0.00 in/hr0.0 mm/hr 0.00 in0.0 mm
03:00 AM 47.0°F8.3°C 46.5°F8.1°C 98% Calm Calm -- 29.98 in1015.2 mb 0.00 in0.0 mm 0.00 in/hr0.0 mm/hr 0.00 in0.0 mm
03:10 AM 47.0°F8.3°C 46.4°F8.0°C 98% 1.0 mph NW1.6 kmh NW 3.0 mph4.8 kmh 29.98 in1015.2 mb 0.00 in0.0 mm 0.00 in/hr0.0 mm/hr 0.00 in0.0 mm
03:20 AM 46.9°F8.3°C 46.4°F8.0°C 98% Calm Calm -- 29.98 in1015.2 mb 0.00 in0.0 mm 0.00 in/hr0.0 mm/hr 0.00 in0.0 mm
03:30 AM 46.8°F8.2°C 46.3°F7.9°C 98% Calm Calm 1.0 mph1.6 kmh 29.97 in1014.9 mb 0.00 in0.0 mm 0.00 in/hr0.0 mm/hr 0.00 in0.0 mm
03:40 AM 46.7°F8.2°C 46.2°F7.9°C 98% Calm Calm -- 29.98 in1015.2 mb 0.00 in0.0 mm 0.00 in/hr0.0 mm/hr 0.00 in0.0 mm
03:50 AM 46.7°F8.2°C 46.2°F7.9°C 98% Calm Calm 2.0 mph3.2 kmh 29.98 in1015.2 mb 0.00 in0.0 mm 0.00 in/hr0.0 mm/hr 0.00 in0.0 mm
04:00 AM 46.7°F8.2°C 46.2°F7.9°C 98% Calm Calm 3.0 mph4.8 kmh 29.98 in1015.2 mb 0.00 in0.0 mm 0.00 in/hr0.0 mm/hr 0.00 in0.0 mm
04:10 AM 46.7°F8.2°C 46.2°F7.9°C 98% Calm Calm 2.0 mph3.2 kmh 29.98 in1015.2 mb 0.00 in0.0 mm 0.00 in/hr0.0 mm/hr 0.00 in0.0 mm
04:20 AM 46.6°F8.1°C 46.1°F7.8°C 98% 1.0 mph WNW1.6 kmh WNW 2.0 mph3.2 kmh 29.98 in1015.2 mb 0.00 in0.0 mm 0.00 in/hr0.0 mm/hr 0.00 in0.0 mm
04:30 AM 46.6°F8.1°C 46.1°F7.8°C 98% Calm Calm 1.0 mph1.6 kmh 29.99 in1015.6 mb 0.00 in0.0 mm 0.00 in/hr0.0 mm/hr 0.00 in0.0 mm
04:40 AM 46.6°F8.1°C 46.1°F7.8°C 98% Calm Calm 2.0 mph3.2 kmh 29.99 in1015.6 mb 0.00 in0.0 mm 0.00 in/hr0.0 mm/hr 0.00 in0.0 mm
04:50 AM 46.6°F8.1°C 46.1°F7.8°C 98% 1.0 mph E1.6 kmh E 2.0 mph3.2 kmh 30.00 in1015.9 mb 0.00 in0.0 mm 0.00 in/hr0.0 mm/hr 0.00 in0.0 mm
05:00 AM 46.7°F8.2°C 46.4°F8.0°C 99% Calm Calm 1.0 mph1.6 kmh 30.00 in1015.9 mb 0.00 in0.0 mm 0.00 in/hr0.0 mm/hr 0.00 in0.0 mm
05:10 AM 46.7°F8.2°C 46.4°F8.0°C 99% Calm Calm 2.0 mph3.2 kmh 30.00 in1015.9 mb 0.01 in0.3 mm 0.06 in/hr1.5 mm/hr 0.01 in0.3 mm
05:20 AM 46.7°F8.2°C 46.5°F8.1°C 99% Calm Calm 2.0 mph3.2 kmh 30.00 in1015.9 mb 0.00 in0.0 mm 0.00 in/hr0.0 mm/hr 0.01 in0.3 mm
05:30 AM 46.8°F8.2°C 46.5°F8.1°C 99% Calm Calm -- 30.00 in1015.9 mb 0.00 in0.0 mm 0.00 in/hr0.0 mm/hr 0.01 in0.3 mm
05:40 AM 46.8°F8.2°C 46.5°F8.1°C 99% 1.0 mph SSE1.6 kmh SSE 2.0 mph3.2 kmh 30.00 in1015.9 mb 0.00 in0.0 mm 0.00 in/hr0.0 mm/hr 0.01 in0.3 mm
05:50 AM 46.7°F8.2°C 46.2°F7.9°C 98% Calm Calm -- 30.00 in1015.9 mb 0.00 in0.0 mm 0.00 in/hr0.0 mm/hr 0.01 in0.3 mm
06:00 AM 46.7°F8.2°C 46.4°F8.0°C 99% Calm Calm 1.0 mph1.6 kmh 30.00 in1015.9 mb 0.00 in0.0 mm 0.00 in/hr0.0 mm/hr 0.01 in0.3 mm
06:10 AM 46.7°F8.2°C 46.4°F8.0°C 99% Calm Calm 2.0 mph3.2 kmh 30.01 in1016.3 mb 0.00 in0.0 mm 0.00 in/hr0.0 mm/hr 0.01 in0.3 mm
06:20 AM 46.7°F8.2°C 46.4°F8.0°C 99% Calm Calm 3.0 mph4.8 kmh 30.00 in1015.9 mb 0.01 in0.3 mm 0.06 in/hr1.5 mm/hr 0.02 in0.5 mm
06:30 AM 46.7°F8.2°C 46.4°F8.0°C 99% Calm Calm 1.0 mph1.6 kmh 30.00 in1015.9 mb 0.01 in0.3 mm 0.06 in/hr1.5 mm/hr 0.03 in0.8 mm
06:40 AM 46.7°F8.2°C 46.5°F8.1°C 99% Calm Calm -- 30.01 in1016.3 mb 0.01 in0.3 mm 0.06 in/hr1.5 mm/hr 0.03 in0.8 mm
06:50 AM 46.8°F8.2°C 46.5°F8.1°C 99% 1.0 mph NW1.6 kmh NW 2.0 mph3.2 kmh 30.01 in1016.3 mb 0.01 in0.3 mm 0.06 in/hr1.5 mm/hr 0.04 in1.0 mm
07:00 AM 46.8°F8.2°C 46.5°F8.1°C 99% 1.0 mph ENE1.6 kmh ENE 5.0 mph8.0 kmh 30.01 in1016.3 mb 0.00 in0.0 mm 0.00 in/hr0.0 mm/hr 0.04 in1.0 mm
07:10 AM 46.7°F8.2°C 46.4°F8.0°C 99% Calm Calm 1.0 mph1.6 kmh 30.01 in1016.3 mb 0.00 in0.0 mm 0.00 in/hr0.0 mm/hr 0.04 in1.0 mm
07:20 AM 46.6°F8.1°C 46.4°F8.0°C 99% Calm Calm 1.0 mph1.6 kmh 30.01 in1016.3 mb 0.01 in0.3 mm 0.06 in/hr1.5 mm/hr 0.05 in1.3 mm
07:30 AM 46.6°F8.1°C 46.3°F7.9°C 99% 1.0 mph ENE1.6 kmh ENE 3.0 mph4.8 kmh 30.02 in1016.6 mb 0.00 in0.0 mm 0.00 in/hr0.0 mm/hr 0.05 in1.3 mm
07:40 AM 46.6°F8.1°C 46.3°F7.9°C 99% Calm Calm -- 30.02 in1016.6 mb 0.00 in0.0 mm 0.00 in/hr0.0 mm/hr 0.05 in1.3 mm
07:50 AM 46.5°F8.1°C 46.3°F7.9°C 99% 1.0 mph SW1.6 kmh SW 3.0 mph4.8 kmh 30.02 in1016.6 mb 0.00 in0.0 mm 0.00 in/hr0.0 mm/hr 0.05 in1.3 mm
08:00 AM 46.6°F8.1°C 46.3°F7.9°C 99% 2.0 mph WNW3.2 kmh WNW 5.0 mph8.0 kmh 30.02 in1016.6 mb 0.00 in0.0 mm 0.00 in/hr0.0 mm/hr 0.05 in1.3 mm
08:10 AM 46.6°F8.1°C 46.3°F7.9°C 99% Calm Calm 5.0 mph8.0 kmh 30.02 in1016.6 mb 0.01 in0.3 mm 0.06 in/hr1.5 mm/hr 0.06 in1.5 mm
08:20 AM 46.7°F8.2°C 46.4°F8.0°C 99% 1.0 mph WSW1.6 kmh WSW 5.0 mph8.0 kmh 30.03 in1016.9 mb 0.00 in0.0 mm 0.00 in/hr0.0 mm/hr 0.06 in1.5 mm
08:30 AM 46.7°F8.2°C 46.4°F8.0°C 99% 1.0 mph S1.6 kmh S 2.0 mph3.2 kmh 30.03 in1016.9 mb 0.00 in0.0 mm 0.00 in/hr0.0 mm/hr 0.06 in1.5 mm
08:40 AM 46.8°F8.2°C 46.5°F8.1°C 99% Calm Calm -- 30.03 in1016.9 mb 0.00 in0.0 mm 0.00 in/hr0.0 mm/hr 0.06 in1.5 mm
08:50 AM 46.8°F8.2°C 46.5°F8.1°C 99% 1.0 mph E1.6 kmh E 1.0 mph1.6 kmh 30.03 in1016.9 mb 0.00 in0.0 mm 0.00 in/hr0.0 mm/hr 0.06 in1.5 mm
09:00 AM 46.9°F8.3°C 46.6°F8.1°C 99% 1.0 mph NNW1.6 kmh NNW 1.0 mph1.6 kmh 30.04 in1017.3 mb 0.01 in0.3 mm 0.01 in/hr0.3 mm/hr 0.07 in1.8 mm
09:10 AM 46.9°F8.3°C 46.6°F8.1°C 99% 1.0 mph SSE1.6 kmh SSE 3.0 mph4.8 kmh 30.04 in1017.3 mb 0.00 in0.0 mm 0.00 in/hr0.0 mm/hr 0.07 in1.8 mm
09:20 AM 46.8°F8.2°C 46.5°F8.1°C 99% 2.0 mph N3.2 kmh N 14.0 mph22.5 kmh 30.04 in1017.3 mb 0.00 in0.0 mm 0.00 in/hr0.0 mm/hr 0.07 in1.8 mm
09:30 AM 46.8°F8.2°C 46.5°F8.1°C 99% 1.0 mph NE1.6 kmh NE 3.0 mph4.8 kmh 30.04 in1017.3 mb 0.00 in0.0 mm 0.00 in/hr0.0 mm/hr 0.07 in1.8 mm
09:40 AM 46.9°F8.3°C 46.6°F8.1°C 99% Calm Calm -- 30.04 in1017.3 mb 0.00 in0.0 mm 0.00 in/hr0.0 mm/hr 0.07 in1.8 mm
09:50 AM 47.0°F8.3°C 46.8°F8.2°C 99% Calm Calm 2.0 mph3.2 kmh 30.04 in1017.3 mb 0.00 in0.0 mm 0.00 in/hr0.0 mm/hr 0.07 in1.8 mm
10:00 AM 47.7°F8.7°C 47.4°F8.6°C 99% 1.0 mph SE1.6 kmh SE 2.0 mph3.2 kmh 30.04 in1017.3 mb 0.01 in0.3 mm 0.01 in/hr0.3 mm/hr 0.08 in2.0 mm
10:10 AM 48.2°F9.0°C 47.9°F8.8°C 99% 1.0 mph SSE1.6 kmh SSE 3.0 mph4.8 kmh 30.04 in1017.3 mb 0.00 in0.0 mm 0.00 in/hr0.0 mm/hr 0.08 in2.0 mm
10:20 AM 48.2°F9.0°C 47.9°F8.8°C 99% 1.0 mph SE1.6 kmh SE 2.0 mph3.2 kmh 30.04 in1017.3 mb 0.01 in0.3 mm 0.06 in/hr1.5 mm/hr 0.09 in2.3 mm
10:30 AM 48.2°F9.0°C 47.9°F8.8°C 99% 1.0 mph SE1.6 kmh SE 2.0 mph3.2 kmh 30.04 in1017.3 mb 0.00 in0.0 mm 0.00 in/hr0.0 mm/hr 0.09 in2.3 mm
10:40 AM 48.0°F8.9°C 47.8°F8.8°C 99% Calm Calm 2.0 mph3.2 kmh 30.03 in1016.9 mb 0.00 in0.0 mm 0.00 in/hr0.0 mm/hr 0.09 in2.3 mm
10:50 AM 47.8°F8.8°C 47.5°F8.6°C 99% Calm Calm 3.0 mph4.8 kmh 30.03 in1016.9 mb 0.00 in0.0 mm 0.00 in/hr0.0 mm/hr 0.09 in2.3 mm
11:00 AM 47.5°F8.6°C 47.3°F8.5°C 99% 3.0 mph SE4.8 kmh SE 7.0 mph11.3 kmh 30.03 in1016.9 mb 0.00 in0.0 mm 0.00 in/hr0.0 mm/hr 0.09 in2.3 mm
11:10 AM 47.8°F8.8°C 47.5°F8.6°C 99% 1.0 mph NNE1.6 kmh NNE 3.0 mph4.8 kmh 30.02 in1016.6 mb 0.00 in0.0 mm 0.00 in/hr0.0 mm/hr 0.09 in2.3 mm
11:20 AM 47.6°F8.7°C 47.3°F8.5°C 99% Calm Calm -- 30.02 in1016.6 mb 0.00 in0.0 mm 0.00 in/hr0.0 mm/hr 0.09 in2.3 mm
11:30 AM 47.6°F8.7°C 47.3°F8.5°C 99% 1.0 mph E1.6 kmh E 6.0 mph9.7 kmh 30.02 in1016.6 mb 0.00 in0.0 mm 0.00 in/hr0.0 mm/hr 0.09 in2.3 mm
11:40 AM 47.4°F8.6°C 47.1°F8.4°C 99% 2.0 mph E3.2 kmh E 3.0 mph4.8 kmh 30.02 in1016.6 mb 0.01 in0.3 mm 0.06 in/hr1.5 mm/hr 0.10 in2.5 mm
11:50 AM 47.4°F8.6°C 47.1°F8.4°C 99% Calm Calm 2.0 mph3.2 kmh 30.02 in1016.6 mb 0.00 in0.0 mm 0.00 in/hr0.0 mm/hr 0.10 in2.5 mm
12:00 PM 47.6°F8.7°C 47.3°F8.5°C 99% 1.0 mph ESE1.6 kmh ESE 3.0 mph4.8 kmh 30.02 in1016.6 mb 0.00 in0.0 mm 0.00 in/hr0.0 mm/hr 0.10 in2.5 mm
12:10 PM 47.5°F8.6°C 47.2°F8.4°C 99% 1.0 mph ESE1.6 kmh ESE 6.0 mph9.7 kmh 30.01 in1016.3 mb 0.01 in0.3 mm 0.06 in/hr1.5 mm/hr 0.11 in2.8 mm
12:20 PM 47.7°F8.7°C 47.4°F8.6°C 99% Calm Calm 3.0 mph4.8 kmh 30.01 in1016.3 mb 0.00 in0.0 mm 0.00 in/hr0.0 mm/hr 0.11 in2.8 mm
12:30 PM 47.7°F8.7°C 47.4°F8.6°C 99% Calm Calm 2.0 mph3.2 kmh 30.00 in1015.9 mb 0.01 in0.3 mm 0.06 in/hr1.5 mm/hr 0.12 in3.0 mm
12:40 PM 48.0°F8.9°C 47.7°F8.7°C 99% 1.0 mph ENE1.6 kmh ENE 5.0 mph8.0 kmh 29.99 in1015.6 mb 0.00 in0.0 mm 0.00 in/hr0.0 mm/hr 0.12 in3.0 mm
12:50 PM 48.1°F8.9°C 47.8°F8.8°C 99% 2.0 mph ESE3.2 kmh ESE 3.0 mph4.8 kmh 29.99 in1015.6 mb 0.01 in0.3 mm 0.06 in/hr1.5 mm/hr 0.13 in3.3 mm
01:00 PM 48.0°F8.9°C 47.7°F8.7°C 99% Calm Calm 1.0 mph1.6 kmh 29.98 in1015.2 mb 0.00 in0.0 mm 0.00 in/hr0.0 mm/hr 0.13 in3.3 mm
01:10 PM 47.7°F8.7°C 47.4°F8.6°C 99% 1.0 mph WSW1.6 kmh WSW 1.0 mph1.6 kmh 29.98 in1015.2 mb 0.00 in0.0 mm 0.00 in/hr0.0 mm/hr 0.13 in3.3 mm
01:20 PM 47.7°F8.7°C 47.5°F8.6°C 99% 2.0 mph NW3.2 kmh NW 5.0 mph8.0 kmh 29.98 in1015.2 mb 0.01 in0.3 mm 0.06 in/hr1.5 mm/hr 0.14 in3.6 mm
01:30 PM 47.6°F8.7°C 47.3°F8.5°C 99% 1.0 mph ENE1.6 kmh ENE 5.0 mph8.0 kmh 29.98 in1015.2 mb 0.00 in0.0 mm 0.00 in/hr0.0 mm/hr 0.14 in3.6 mm
01:40 PM 47.4°F8.6°C 47.1°F8.4°C 99% Calm Calm 2.0 mph3.2 kmh 29.97 in1014.9 mb 0.00 in0.0 mm 0.00 in/hr0.0 mm/hr 0.14 in3.6 mm
01:50 PM 47.2°F8.4°C 46.7°F8.2°C 98% 2.0 mph E3.2 kmh E 7.0 mph11.3 kmh 29.98 in1015.2 mb 0.01 in0.3 mm 0.06 in/hr1.5 mm/hr 0.15 in3.8 mm
02:00 PM 47.2°F8.4°C 46.9°F8.3°C 99% 2.0 mph SE3.2 kmh SE 3.0 mph4.8 kmh 29.98 in1015.2 mb 0.00 in0.0 mm 0.00 in/hr0.0 mm/hr 0.15 in3.8 mm
02:10 PM 47.3°F8.5°C 47.0°F8.3°C 99% 1.0 mph E1.6 kmh E 5.0 mph8.0 kmh 29.97 in1014.9 mb 0.00 in0.0 mm 0.00 in/hr0.0 mm/hr 0.15 in3.8 mm
02:20 PM 47.4°F8.6°C 47.1°F8.4°C 99% 1.0 mph W1.6 kmh W 5.0 mph8.0 kmh 29.97 in1014.9 mb 0.01 in0.3 mm 0.06 in/hr1.5 mm/hr 0.16 in4.1 mm
02:30 PM 47.6°F8.7°C 47.3°F8.5°C 99% Calm Calm 3.0 mph4.8 kmh 29.97 in1014.9 mb 0.01 in0.3 mm 0.06 in/hr1.5 mm/hr 0.16 in4.1 mm
02:40 PM 47.5°F8.6°C 47.3°F8.5°C 99% Calm Calm 1.0 mph1.6 kmh 29.97 in1014.9 mb 0.01 in0.3 mm 0.06 in/hr1.5 mm/hr 0.17 in4.3 mm
02:50 PM 47.6°F8.7°C 47.3°F8.5°C 99% Calm Calm 1.0 mph1.6 kmh 29.96 in1014.6 mb 0.01 in0.3 mm 0.06 in/hr1.5 mm/hr 0.18 in4.6 mm
03:00 PM 47.9°F8.8°C 47.6°F8.7°C 99% 1.0 mph ESE1.6 kmh ESE 3.0 mph4.8 kmh 29.96 in1014.6 mb 0.01 in0.3 mm 0.01 in/hr0.3 mm/hr 0.19 in4.8 mm
03:10 PM 47.7°F8.7°C 47.5°F8.6°C 99% 1.0 mph ENE1.6 kmh ENE 3.0 mph4.8 kmh 29.95 in1014.2 mb 0.02 in0.5 mm 0.12 in/hr3.0 mm/hr 0.21 in5.3 mm
03:20 PM 47.6°F8.7°C 47.3°F8.5°C 99% 1.0 mph N1.6 kmh N 10.0 mph16.1 kmh 29.95 in1014.2 mb 0.00 in0.0 mm 0.00 in/hr0.0 mm/hr 0.21 in5.3 mm
03:30 PM 47.6°F8.7°C 47.3°F8.5°C 99% 2.0 mph ENE3.2 kmh ENE 3.0 mph4.8 kmh 29.95 in1014.2 mb 0.00 in0.0 mm 0.00 in/hr0.0 mm/hr 0.21 in5.3 mm
03:40 PM 47.7°F8.7°C 47.4°F8.6°C 99% 2.0 mph E3.2 kmh E 3.0 mph4.8 kmh 29.95 in1014.2 mb 0.01 in0.3 mm 0.06 in/hr1.5 mm/hr 0.22 in5.6 mm
03:50 PM 47.7°F8.7°C 47.4°F8.6°C 99% Calm Calm 2.0 mph3.2 kmh 29.95 in1014.2 mb 0.01 in0.3 mm 0.06 in/hr1.5 mm/hr 0.23 in5.8 mm
04:00 PM 47.4°F8.6°C 47.2°F8.4°C 99% 2.0 mph N3.2 kmh N 3.0 mph4.8 kmh 29.94 in1013.9 mb 0.00 in0.0 mm 0.00 in/hr0.0 mm/hr 0.23 in5.8 mm
04:10 PM 47.3°F8.5°C 47.0°F8.3°C 99% 2.0 mph E3.2 kmh E 7.0 mph11.3 kmh 29.94 in1013.9 mb 0.01 in0.3 mm 0.06 in/hr1.5 mm/hr 0.24 in6.1 mm
04:20 PM 47.3°F8.5°C 47.0°F8.3°C 99% 1.0 mph SSE1.6 kmh SSE 3.0 mph4.8 kmh 29.94 in1013.9 mb 0.02 in0.5 mm 0.12 in/hr3.0 mm/hr 0.26 in6.6 mm
04:30 PM 47.2°F8.4°C 46.9°F8.3°C 99% 3.0 mph NE4.8 kmh NE 7.0 mph11.3 kmh 29.93 in1013.5 mb 0.01 in0.3 mm 0.06 in/hr1.5 mm/hr 0.26 in6.6 mm
04:40 PM 47.1°F8.4°C 46.8°F8.2°C 99% 2.0 mph ENE3.2 kmh ENE 3.0 mph4.8 kmh 29.93 in1013.5 mb 0.01 in0.3 mm 0.06 in/hr1.5 mm/hr 0.27 in6.9 mm
04:50 PM 47.0°F8.3°C 46.7°F8.2°C 99% 2.0 mph SSE3.2 kmh SSE 2.0 mph3.2 kmh 29.93 in1013.5 mb 0.01 in0.3 mm 0.06 in/hr1.5 mm/hr 0.27 in6.9 mm
05:00 PM 46.7°F8.2°C 46.5°F8.1°C 99% 2.0 mph ENE3.2 kmh ENE 5.0 mph8.0 kmh 29.93 in1013.5 mb 0.01 in0.3 mm 0.01 in/hr0.3 mm/hr 0.28 in7.1 mm
05:10 PM 46.6°F8.1°C 46.3°F7.9°C 99% 1.0 mph E1.6 kmh E 5.0 mph8.0 kmh 29.93 in1013.5 mb 0.01 in0.3 mm 0.06 in/hr1.5 mm/hr 0.29 in7.4 mm
05:20 PM 46.5°F8.1°C 46.2°F7.9°C 99% 2.0 mph E3.2 kmh E 5.0 mph8.0 kmh 29.93 in1013.5 mb 0.00 in0.0 mm 0.00 in/hr0.0 mm/hr 0.29 in7.4 mm
05:30 PM 46.3°F7.9°C 46.0°F7.8°C 99% 2.0 mph NNE3.2 kmh NNE 2.0 mph3.2 kmh 29.93 in1013.5 mb 0.01 in0.3 mm 0.06 in/hr1.5 mm/hr 0.30 in7.6 mm
05:40 PM 46.1°F7.8°C 45.8°F7.7°C 99% 1.0 mph ENE1.6 kmh ENE 5.0 mph8.0 kmh 29.93 in1013.5 mb 0.03 in0.8 mm 0.18 in/hr4.6 mm/hr 0.33 in8.4 mm
05:50 PM 46.0°F7.8°C 45.7°F7.6°C 99% 1.0 mph E1.6 kmh E 3.0 mph4.8 kmh 29.92 in1013.2 mb 0.01 in0.3 mm 0.06 in/hr1.5 mm/hr 0.34 in8.6 mm
06:00 PM 46.0°F7.8°C 45.7°F7.6°C 99% 2.0 mph E3.2 kmh E 5.0 mph8.0 kmh 29.93 in1013.5 mb 0.01 in0.3 mm 0.01 in/hr0.3 mm/hr 0.35 in8.9 mm
06:10 PM 45.9°F7.7°C 45.6°F7.6°C 99% 1.0 mph E1.6 kmh E 6.0 mph9.7 kmh 29.93 in1013.5 mb 0.00 in0.0 mm 0.00 in/hr0.0 mm/hr 0.35 in8.9 mm
06:20 PM 45.6°F7.6°C 45.3°F7.4°C 99% 2.0 mph ENE3.2 kmh ENE 2.0 mph3.2 kmh 29.93 in1013.5 mb 0.01 in0.3 mm 0.06 in/hr1.5 mm/hr 0.36 in9.1 mm
06:30 PM 45.5°F7.5°C 45.2°F7.3°C 99% Calm Calm 2.0 mph3.2 kmh 29.92 in1013.2 mb 0.01 in0.3 mm 0.06 in/hr1.5 mm/hr 0.37 in9.4 mm
06:40 PM 45.4°F7.4°C 45.1°F7.3°C 99% 1.0 mph SE1.6 kmh SE 7.0 mph11.3 kmh 29.92 in1013.2 mb 0.01 in0.3 mm 0.06 in/hr1.5 mm/hr 0.38 in9.7 mm
06:50 PM 45.2°F7.3°C 44.9°F7.2°C 99% 2.0 mph NNE3.2 kmh NNE 3.0 mph4.8 kmh 29.92 in1013.2 mb 0.01 in0.3 mm 0.06 in/hr1.5 mm/hr 0.39 in9.9 mm
07:00 PM 45.2°F7.3°C 44.9°F7.2°C 99% 1.0 mph ENE1.6 kmh ENE 2.0 mph3.2 kmh 29.92 in1013.2 mb 0.01 in0.3 mm 0.01 in/hr0.3 mm/hr 0.40 in10.2 mm
07:10 PM 45.1°F7.3°C 44.8°F7.1°C 99% 1.0 mph ESE1.6 kmh ESE 3.0 mph4.8 kmh 29.91 in1012.9 mb 0.01 in0.3 mm 0.06 in/hr1.5 mm/hr 0.41 in10.4 mm
07:20 PM 45.0°F7.2°C 44.7°F7.1°C 99% 1.0 mph E1.6 kmh E 3.0 mph4.8 kmh 29.91 in1012.9 mb 0.01 in0.3 mm 0.06 in/hr1.5 mm/hr 0.42 in10.7 mm
07:30 PM 44.9°F7.2°C 44.6°F7.0°C 99% 2.0 mph E3.2 kmh E 3.0 mph4.8 kmh 29.91 in1012.9 mb 0.00 in0.0 mm 0.00 in/hr0.0 mm/hr 0.42 in10.7 mm
07:40 PM 44.9°F7.2°C 44.6°F7.0°C 99% 2.0 mph E3.2 kmh E 3.0 mph4.8 kmh 29.91 in1012.9 mb 0.00 in0.0 mm 0.00 in/hr0.0 mm/hr 0.42 in10.7 mm
07:50 PM 44.8°F7.1°C 44.5°F6.9°C 99% 2.0 mph SE3.2 kmh SE 5.0 mph8.0 kmh 29.90 in1012.5 mb 0.01 in0.3 mm 0.06 in/hr1.5 mm/hr 0.43 in10.9 mm
08:00 PM 44.8°F7.1°C 44.5°F6.9°C 99% 2.0 mph N3.2 kmh N 2.0 mph3.2 kmh 29.90 in1012.5 mb 0.00 in0.0 mm 0.00 in/hr0.0 mm/hr 0.43 in10.9 mm
08:10 PM 44.8°F7.1°C 44.5°F6.9°C 99% 2.0 mph NW3.2 kmh NW 5.0 mph8.0 kmh 29.90 in1012.5 mb 0.00 in0.0 mm 0.00 in/hr0.0 mm/hr 0.43 in10.9 mm
08:20 PM 44.8°F7.1°C 44.5°F6.9°C 99% 2.0 mph ENE3.2 kmh ENE 10.0 mph16.1 kmh 29.91 in1012.9 mb 0.01 in0.3 mm 0.06 in/hr1.5 mm/hr 0.44 in11.2 mm
08:30 PM 44.8°F7.1°C 44.6°F7.0°C 99% 2.0 mph NE3.2 kmh NE 3.0 mph4.8 kmh 29.91 in1012.9 mb 0.01 in0.3 mm 0.06 in/hr1.5 mm/hr 0.45 in11.4 mm
08:40 PM 44.9°F7.2°C 44.6°F7.0°C 99% 2.0 mph NE3.2 kmh NE 6.0 mph9.7 kmh 29.90 in1012.5 mb 0.01 in0.3 mm 0.06 in/hr1.5 mm/hr 0.46 in11.7 mm
08:50 PM 44.9°F7.2°C 44.6°F7.0°C 99% 2.0 mph ESE3.2 kmh ESE 5.0 mph8.0 kmh 29.90 in1012.5 mb 0.01 in0.3 mm 0.06 in/hr1.5 mm/hr 0.46 in11.7 mm
09:00 PM 45.0°F7.2°C 44.7°F7.1°C 99% 1.0 mph ESE1.6 kmh ESE 3.0 mph4.8 kmh 29.90 in1012.5 mb 0.01 in0.3 mm 0.01 in/hr0.3 mm/hr 0.47 in11.9 mm
09:10 PM 45.0°F7.2°C 44.7°F7.1°C 99% 2.0 mph NE3.2 kmh NE 7.0 mph11.3 kmh 29.89 in1012.2 mb 0.00 in0.0 mm 0.00 in/hr0.0 mm/hr 0.47 in11.9 mm
09:20 PM 45.1°F7.3°C 44.8°F7.1°C 99% 2.0 mph E3.2 kmh E 3.0 mph4.8 kmh 29.89 in1012.2 mb 0.01 in0.3 mm 0.06 in/hr1.5 mm/hr 0.48 in12.2 mm
09:30 PM 45.1°F7.3°C 44.8°F7.1°C 99% 2.0 mph SSE3.2 kmh SSE 3.0 mph4.8 kmh 29.88 in1011.9 mb 0.00 in0.0 mm 0.00 in/hr0.0 mm/hr 0.48 in12.2 mm
09:40 PM 45.1°F7.3°C 44.9°F7.2°C 99% 1.0 mph N1.6 kmh N 3.0 mph4.8 kmh 29.87 in1011.5 mb 0.01 in0.3 mm 0.06 in/hr1.5 mm/hr 0.49 in12.4 mm
09:50 PM 45.2°F7.3°C 44.9°F7.2°C 99% 1.0 mph E1.6 kmh E 5.0 mph8.0 kmh 29.88 in1011.9 mb 0.00 in0.0 mm 0.00 in/hr0.0 mm/hr 0.49 in12.4 mm
10:00 PM 45.2°F7.3°C 44.9°F7.2°C 99% 1.0 mph NE1.6 kmh NE 7.0 mph11.3 kmh 29.87 in1011.5 mb 0.01 in0.3 mm 0.01 in/hr0.3 mm/hr 0.50 in12.7 mm
10:10 PM 45.2°F7.3°C 44.9°F7.2°C 99% 2.0 mph SE3.2 kmh SE 7.0 mph11.3 kmh 29.87 in1011.5 mb 0.00 in0.0 mm 0.00 in/hr0.0 mm/hr 0.50 in12.7 mm
10:20 PM 45.3°F7.4°C 45.0°F7.2°C 99% 2.0 mph E3.2 kmh E 2.0 mph3.2 kmh 29.87 in1011.5 mb 0.00 in0.0 mm 0.00 in/hr0.0 mm/hr 0.50 in12.7 mm
10:30 PM 45.3°F7.4°C 45.0°F7.2°C 99% 2.0 mph E3.2 kmh E 3.0 mph4.8 kmh 29.87 in1011.5 mb 0.01 in0.3 mm 0.06 in/hr1.5 mm/hr 0.51 in13.0 mm
10:40 PM 45.3°F7.4°C 45.0°F7.2°C 99% 1.0 mph ESE1.6 kmh ESE 3.0 mph4.8 kmh 29.88 in1011.9 mb 0.01 in0.3 mm 0.06 in/hr1.5 mm/hr 0.52 in13.2 mm
10:50 PM 45.3°F7.4°C 45.0°F7.2°C 99% 2.0 mph E3.2 kmh E 5.0 mph8.0 kmh 29.86 in1011.2 mb 0.00 in0.0 mm 0.00 in/hr0.0 mm/hr 0.52 in13.2 mm
11:00 PM 45.3°F7.4°C 45.0°F7.2°C 99% 3.0 mph E4.8 kmh E 7.0 mph11.3 kmh 29.86 in1011.2 mb 0.00 in0.0 mm 0.00 in/hr0.0 mm/hr 0.52 in13.2 mm
11:10 PM 45.3°F7.4°C 45.0°F7.2°C 99% 2.0 mph NE3.2 kmh NE 7.0 mph11.3 kmh 29.86 in1011.2 mb 0.00 in0.0 mm 0.00 in/hr0.0 mm/hr 0.52 in13.2 mm
11:20 PM 45.3°F7.4°C 45.0°F7.2°C 99% 2.0 mph NE3.2 kmh NE 3.0 mph4.8 kmh 29.85 in1010.8 mb 0.00 in0.0 mm 0.00 in/hr0.0 mm/hr 0.52 in13.2 mm
11:30 PM 45.2°F7.3°C 45.0°F7.2°C 99% 1.0 mph SE1.6 kmh SE 3.0 mph4.8 kmh 29.85 in1010.8 mb 0.02 in0.5 mm 0.12 in/hr3.0 mm/hr 0.54 in13.7 mm
11:40 PM 45.2°F7.3°C 44.9°F7.2°C 99% 1.0 mph E1.6 kmh E 3.0 mph4.8 kmh 29.86 in1011.2 mb 0.04 in1.0 mm 0.24 in/hr6.1 mm/hr 0.57 in14.5 mm
11:50 PM 45.2°F7.3°C 44.9°F7.2°C 99% 2.0 mph SSE3.2 kmh SSE 3.0 mph4.8 kmh 29.85 in1010.8 mb 0.03 in0.8 mm 0.18 in/hr4.6 mm/hr 0.60 in15.2 mm